Terminal Aerodrome Forecast
Issued by NWS Upton, NY

Home | Current Version | Previous Version | Text Only | Print | Product List | Glossary On
Versions: 1 2 3 4 5 6 7 8 9 10 11 12 13 14 15 16 17 18 19 20 21 22 23 24 25 26 27 28 29
000
FTUS41 KOKX 222200 AAB
TAFJFK
TAF AMD
KJFK 222205Z 2222/2324 36018G25KT 6SM SHRA BR BKN015 OVC025
     FM230000 35022G29KT 4SM -RA BR BKN015
     FM230600 34018G28KT 4SM -RA BR BKN010
     FM231300 33020G30KT 6SM BR VCSH BKN015
     FM231800 33020G30KT P6SM OVC025=

USA.gov is the U.S. government's official web portal to all federal, state and local government web resources and services.